Time;durP1;ratioP1;P1;durP2;ratioP2;P2;SDS_P1;SDS_P2;PMS_P1;PMS_P2;Temp;Humidity;BMP_temperature;BMP_pressure;BME280_temperature;BME280_humidity;BME280_pressure;Samples;Min_cycle;Max_cycle;Signal;HPM_P1;HPM_P2
2021/12/19 00:09:04;;;;;;;16.10;9.85;;;;;;;1.70;99.27;101110.06;5043527;28;20044;-70
2021/12/19 00:11:31;;;;;;;13.75;9.52;;;;;;;1.63;99.93;101107.84;5051293;28;20051;-70
2021/12/19 00:13:57;;;;;;;22.10;9.77;;;;;;;1.69;99.77;101110.97;5049145;28;20028;-69
2021/12/19 00:16:23;;;;;;;14.27;8.95;;;;;;;1.66;99.22;101105.03;5032514;28;20132;-72
2021/12/19 00:18:50;;;;;;;18.40;9.75;;;;;;;1.73;100.00;101107.22;5049206;28;20473;-70
2021/12/19 00:21:17;;;;;;;17.48;10.20;;;;;;;1.72;99.92;101108.16;5050374;28;20494;-69
2021/12/19 00:23:45;;;;;;;15.23;9.50;;;;;;;1.72;99.60;101106.41;5036651;28;20045;-68
2021/12/19 00:26:11;;;;;;;17.30;9.13;;;;;;;1.73;99.77;101100.22;5050071;28;20470;-69
2021/12/19 00:28:37;;;;;;;13.50;8.73;;;;;;;1.75;99.26;101102.72;5043512;28;20167;-71
2021/12/19 00:31:04;;;;;;;14.60;8.77;;;;;;;1.77;99.63;101096.47;5050363;28;20037;-71
2021/12/19 00:33:29;;;;;;;16.00;9.23;;;;;;;1.77;99.05;101093.00;5050884;28;20037;-68
2021/12/19 00:35:55;;;;;;;14.10;9.45;;;;;;;1.79;98.81;101089.34;5039958;28;20043;-69
2021/12/19 00:38:21;;;;;;;15.45;9.38;;;;;;;1.81;98.87;101092.69;5047715;28;20040;-69
2021/12/19 00:40:46;;;;;;;16.70;10.15;;;;;;;1.79;97.60;101088.50;5049936;28;20139;-70
2021/12/19 00:43:23;;;;;;;14.38;10.57;;;;;;;1.80;97.13;101079.72;5037582;28;20461;-69
2021/12/19 00:45:50;;;;;;;12.07;9.30;;;;;;;1.80;97.87;101083.16;5034135;28;20033;-70
2021/12/19 00:48:16;;;;;;;12.32;8.57;;;;;;;1.81;98.10;101074.38;5050579;28;20401;-69
2021/12/19 00:50:42;;;;;;;12.63;8.77;;;;;;;1.76;97.66;101058.16;5032103;28;20112;-69
2021/12/19 00:53:08;;;;;;;15.60;9.02;;;;;;;1.79;96.26;101054.50;5033874;28;20414;-70
2021/12/19 00:55:35;;;;;;;12.48;9.13;;;;;;;1.82;97.24;101051.66;5051810;28;20272;-68
2021/12/19 00:58:01;;;;;;;11.35;8.52;;;;;;;1.79;97.01;101046.66;5032993;28;20026;-68
2021/12/19 01:00:31;;;;;;;10.75;8.00;;;;;;;1.79;96.36;101042.25;5036327;28;20025;-67
2021/12/19 01:02:59;;;;;;;15.10;9.35;;;;;;;1.79;96.87;101037.03;5032561;28;20032;-70
2021/12/19 01:05:27;;;;;;;15.85;8.63;;;;;;;1.79;96.05;101037.03;5050387;28;20033;-70
2021/12/19 01:07:53;;;;;;;12.75;8.23;;;;;;;1.77;97.23;101027.63;5044324;28;20036;-70
2021/12/19 01:10:19;;;;;;;9.38;8.13;;;;;;;1.80;96.77;101025.63;5045701;28;20029;-71
2021/12/19 01:12:45;;;;;;;21.27;10.00;;;;;;;1.83;96.60;101025.41;5042033;28;20033;-70
2021/12/19 01:15:13;;;;;;;11.35;8.50;;;;;;;1.83;96.32;101014.94;5032509;28;20029;-70
2021/12/19 01:17:40;;;;;;;12.32;8.60;;;;;;;1.83;96.19;101008.88;5033003;28;20279;-68
2021/12/19 01:20:11;;;;;;;13.18;8.45;;;;;;;1.83;96.28;101001.00;5046724;28;20033;-71
2021/12/19 01:22:37;;;;;;;15.30;8.35;;;;;;;1.82;96.01;101002.78;5048661;28;20029;-70
2021/12/19 01:25:03;;;;;;;18.88;9.00;;;;;;;1.77;95.84;101004.09;5044975;28;20463;-69
2021/12/19 01:27:29;;;;;;;16.20;8.23;;;;;;;1.81;96.30;100998.50;5056831;28;20016;-70
2021/12/19 01:29:54;;;;;;;12.48;8.63;;;;;;;1.83;96.66;100993.16;5032995;28;20390;-69
2021/12/19 01:32:20;;;;;;;11.70;8.55;;;;;;;1.80;95.82;100990.78;5067415;28;20036;-72
2021/12/19 01:34:45;;;;;;;15.20;10.20;;;;;;;1.74;94.94;100992.03;5037501;28;20742;-70
2021/12/19 01:37:11;;;;;;;9.38;7.70;;;;;;;1.77;95.67;100989.22;5039366;28;20021;-71
2021/12/19 01:39:36;;;;;;;14.52;8.00;;;;;;;1.82;95.30;100992.34;5038710;28;20037;-70
2021/12/19 01:42:02;;;;;;;19.95;8.10;;;;;;;1.76;95.18;100978.84;5044089;28;20115;-68
2021/12/19 01:44:27;;;;;;;9.45;7.70;;;;;;;1.78;95.17;100974.38;5054105;28;20029;-69
2021/12/19 01:46:54;;;;;;;9.85;8.27;;;;;;;1.78;95.09;100969.13;5038237;28;20075;-71
2021/12/19 01:49:22;;;;;;;12.65;8.07;;;;;;;1.70;94.69;100968.84;5035568;28;20394;-71
2021/12/19 01:51:48;;;;;;;7.82;6.70;;;;;;;1.71;95.06;100960.88;5049425;28;20036;-68
2021/12/19 01:54:15;;;;;;;7.75;7.00;;;;;;;1.74;94.40;100949.34;5035003;28;20048;-67
2021/12/19 01:56:40;;;;;;;8.60;6.75;;;;;;;1.74;95.37;100938.88;5036208;28;20087;-68
2021/12/19 01:59:09;;;;;;;10.38;7.25;;;;;;;1.75;94.75;100944.00;5045237;28;20033;-71
2021/12/19 02:01:42;;;;;;;9.27;6.57;;;;;;;1.71;95.29;100929.50;5049604;28;20037;-69
2021/12/19 02:04:07;;;;;;;8.68;7.18;;;;;;;1.65;94.91;100928.13;5037161;28;20042;-69
2021/12/19 02:06:33;;;;;;;9.50;7.18;;;;;;;1.69;94.94;100923.53;5048424;28;20030;-73
2021/12/19 02:09:04;;;;;;;13.38;8.65;;;;;;;1.72;94.05;100918.09;5046897;28;20036;-73
2021/12/19 02:11:31;;;;;;;8.88;7.53;;;;;;;1.72;93.70;100915.47;5051973;28;20043;-70
2021/12/19 02:13:56;;;;;;;13.48;8.07;;;;;;;1.76;94.99;100900.38;5049396;28;20098;-69
2021/12/19 02:16:22;;;;;;;13.73;7.80;;;;;;;1.78;94.69;100901.97;5035711;28;20554;-70
2021/12/19 02:18:48;;;;;;;18.85;8.15;;;;;;;1.79;94.52;100897.56;5042033;28;20116;-69
2021/12/19 02:21:13;;;;;;;9.80;7.55;;;;;;;1.74;94.23;100895.25;5043238;28;20395;-69
2021/12/19 02:23:38;;;;;;;8.63;7.65;;;;;;;1.75;92.71;100889.09;5037872;28;20030;-70
2021/12/19 02:26:04;;;;;;;10.60;6.85;;;;;;;1.75;91.12;100875.19;5049753;28;20033;-70
2021/12/19 02:28:29;;;;;;;8.52;6.75;;;;;;;1.72;90.56;100873.63;5052009;28;20043;-69
2021/12/19 02:30:55;;;;;;;12.20;7.30;;;;;;;1.78;90.47;100870.56;5058927;28;20024;-68
2021/12/19 02:33:24;;;;;;;10.93;6.68;;;;;;;1.81;90.57;100872.13;5064042;28;20029;-70
2021/12/19 02:36:06;;;;;;;10.05;7.18;;;;;;;1.80;89.89;100866.06;5043341;28;20116;-69
2021/12/19 02:49:29;;;;;;;8.77;6.95;;;;;;;1.84;88.91;100845.78;5051357;28;20083;-68
2021/12/19 02:51:55;;;;;;;10.55;8.15;;;;;;;1.82;89.18;100847.63;5050081;28;20103;-69
2021/12/19 02:54:22;;;;;;;8.38;6.97;;;;;;;1.85;89.71;100836.97;5038096;28;20117;-69
2021/12/19 02:56:49;;;;;;;7.25;6.40;;;;;;;1.86;89.93;100842.09;5046261;28;20075;-70
2021/12/19 02:59:15;;;;;;;9.98;7.15;;;;;;;1.84;89.89;100837.91;5041140;28;20116;-71
2021/12/19 03:01:43;;;;;;;7.63;6.20;;;;;;;1.87;91.26;100835.06;5050186;28;20478;-68
2021/12/19 03:04:09;;;;;;;8.23;7.20;;;;;;;1.86;90.72;100830.78;5048128;28;20029;-68
2021/12/19 03:06:34;;;;;;;11.38;7.20;;;;;;;1.84;90.50;100824.84;5051302;28;20040;-72
2021/12/19 03:09:06;;;;;;;10.23;7.45;;;;;;;1.87;91.03;100828.06;5039835;28;20029;-70
2021/12/19 03:19:25;;;;;;;9.20;7.40;;;;;;;1.87;90.98;100822.81;5041367;28;20045;-69
2021/12/19 03:21:50;;;;;;;11.70;7.93;;;;;;;1.82;91.04;100824.94;5045417;28;20033;-70
2021/12/19 03:24:16;;;;;;;11.73;7.50;;;;;;;1.84;92.22;100814.38;5042603;28;20424;-69
2021/12/19 03:26:41;;;;;;;7.20;6.47;;;;;;;1.78;91.58;100807.81;5043738;28;20061;-68
2021/12/19 03:29:07;;;;;;;7.95;7.15;;;;;;;1.85;91.82;100793.34;5044272;28;20029;-70
2021/12/19 03:31:32;;;;;;;7.93;6.75;;;;;;;1.88;92.63;100792.25;5042025;28;20033;-68
2021/12/19 03:33:59;;;;;;;11.63;7.65;;;;;;;1.79;92.74;100790.31;5043866;28;20028;-69
2021/12/19 03:36:24;;;;;;;20.85;8.60;;;;;;;1.81;93.50;100791.88;5052980;28;20576;-70
2021/12/19 03:38:57;;;;;;;7.80;6.60;;;;;;;1.82;93.75;100782.25;5051590;28;20045;-70
2021/12/19 03:41:26;;;;;;;7.93;7.07;;;;;;;1.78;93.09;100775.59;5050127;28;20078;-69
2021/12/19 03:43:52;;;;;;;10.88;7.03;;;;;;;1.75;93.08;100773.16;5050614;28;20401;-69
2021/12/19 03:46:18;;;;;;;10.95;6.57;;;;;;;1.71;92.91;100769.97;5048753;28;20033;-70
2021/12/19 03:48:44;;;;;;;7.82;7.13;;;;;;;1.73;92.57;100769.84;5050280;28;20513;-70
2021/12/19 03:51:09;;;;;;;7.45;6.53;;;;;;;1.66;93.23;100770.28;5041592;28;20124;-69
2021/12/19 03:53:36;;;;;;;9.93;7.13;;;;;;;1.68;93.01;100775.41;5043079;28;20425;-69
2021/12/19 03:56:02;;;;;;;7.57;6.65;;;;;;;1.70;93.96;100762.22;5034785;28;20044;-69
2021/12/19 03:58:27;;;;;;;8.50;7.40;;;;;;;1.68;95.05;100767.56;5039123;28;20033;-70
2021/12/19 04:00:59;;;;;;;10.27;8.10;;;;;;;1.66;94.67;100759.81;5035016;28;20510;-68
2021/12/19 04:03:24;;;;;;;8.05;6.70;;;;;;;1.69;94.67;100761.41;5036406;28;20520;-69
2021/12/19 04:05:51;;;;;;;8.20;6.95;;;;;;;1.68;95.55;100749.25;5034546;28;20025;-69
2021/12/19 04:08:18;;;;;;;9.23;6.95;;;;;;;1.68;96.23;100746.63;5039993;28;20029;-69
2021/12/19 04:10:46;;;;;;;8.88;6.78;;;;;;;1.65;96.68;100736.41;5044139;28;20368;-70
2021/12/19 04:13:12;;;;;;;9.50;6.65;;;;;;;1.67;96.50;100732.72;5040021;28;20029;-71
2021/12/19 04:15:38;;;;;;;9.77;6.28;;;;;;;1.67;97.72;100721.44;5039104;28;20478;-69
2021/12/19 04:18:04;;;;;;;7.70;6.32;;;;;;;1.71;98.10;100722.88;5044921;28;20028;-68
2021/12/19 04:20:29;;;;;;;10.73;7.57;;;;;;;1.70;98.39;100712.56;5049162;28;20025;-69
2021/12/19 04:22:55;;;;;;;7.47;6.30;;;;;;;1.63;98.45;100710.38;5042054;28;20040;-70
2021/12/19 04:25:21;;;;;;;10.77;6.78;;;;;;;1.63;98.67;100707.75;5044609;28;20028;-69
2021/12/19 04:27:47;;;;;;;10.27;7.60;;;;;;;1.64;99.07;100703.38;5044440;28;20037;-69
2021/12/19 04:30:21;;;;;;;14.40;8.52;;;;;;;1.67;99.83;100706.56;5048141;28;20029;-71
2021/12/19 04:32:56;;;;;;;10.52;7.03;;;;;;;1.66;98.83;100711.94;5039816;28;20025;-70
2021/12/19 04:35:22;;;;;;;7.05;6.25;;;;;;;1.67;98.61;100710.97;5043947;28;20486;-69
2021/12/19 04:38:38;;;;;;;9.63;6.50;;;;;;;1.69;99.41;100703.88;5042171;28;20027;-71
2021/12/19 04:54:23;;;;;;;14.45;7.10;;;;;;;1.76;99.94;100667.59;5044034;28;20478;-70
2021/12/19 04:57:05;;;;;;;9.50;6.82;;;;;;;1.75;100.00;100663.31;5032312;28;20021;-70
2021/12/19 04:59:51;;;;;;;11.00;7.43;;;;;;;1.79;100.00;100659.56;5034053;28;20486;-68
2021/12/19 05:15:33;;;;;;;8.00;6.53;;;;;;;1.82;100.00;100633.16;5040319;28;20399;-70
2021/12/19 05:18:04;;;;;;;9.02;7.03;;;;;;;1.83;100.00;100625.19;5046382;28;20049;-71
2021/12/19 05:20:31;;;;;;;9.18;7.13;;;;;;;1.84;100.00;100629.50;5047852;28;20037;-69
2021/12/19 05:23:05;;;;;;;8.23;7.18;;;;;;;1.79;100.00;100625.56;5041398;28;20037;-69
2021/12/19 05:25:30;;;;;;;8.23;6.50;;;;;;;1.77;100.00;100623.06;5038039;28;20032;-70
2021/12/19 05:27:56;;;;;;;11.02;8.10;;;;;;;1.80;100.00;100628.03;5036164;28;20041;-73
2021/12/19 05:30:23;;;;;;;7.65;6.85;;;;;;;1.76;100.00;100621.38;5037767;28;20116;-70
2021/12/19 05:32:51;;;;;;;10.05;6.47;;;;;;;1.83;100.00;100619.94;5043991;28;20084;-68
2021/12/19 05:35:25;;;;;;;10.02;7.40;;;;;;;1.87;100.00;100620.56;5037442;28;20053;-69
2021/12/19 05:46:05;;;;;;;9.18;7.68;;;;;;;1.87;100.00;100608.31;5038906;28;20445;-72
2021/12/19 05:48:30;;;;;;;9.43;6.85;;;;;;;1.89;100.00;100606.41;5041186;28;20036;-69
2021/12/19 05:50:56;;;;;;;13.38;7.85;;;;;;;1.88;100.00;100603.91;5051715;28;20497;-72
2021/12/19 05:53:21;;;;;;;8.82;7.40;;;;;;;1.91;100.00;100596.69;5044345;28;20045;-68
2021/12/19 05:55:47;;;;;;;14.02;8.05;;;;;;;1.89;100.00;100595.13;5048228;28;20025;-72
2021/12/19 05:58:12;;;;;;;10.20;7.68;;;;;;;1.86;100.00;100593.56;5037794;28;20375;-71
2021/12/19 06:00:38;;;;;;;8.98;7.72;;;;;;;1.88;100.00;100591.66;5039003;28;20537;-70
2021/12/19 06:03:04;;;;;;;14.40;7.93;;;;;;;1.87;100.00;100589.19;5038102;28;20070;-72
2021/12/19 06:05:30;;;;;;;8.32;7.53;;;;;;;1.90;100.00;100587.16;5051012;28;20038;-72
2021/12/19 06:07:56;;;;;;;8.13;6.97;;;;;;;1.89;100.00;100579.44;5043494;28;20076;-69
2021/12/19 06:10:22;;;;;;;13.55;7.18;;;;;;;1.89;100.00;100588.09;5051428;28;20021;-68
2021/12/19 06:12:49;;;;;;;10.43;7.38;;;;;;;1.78;100.00;100580.25;5038283;28;20131;-70
2021/12/19 06:15:14;;;;;;;10.50;8.32;;;;;;;1.83;100.00;100579.88;5037206;28;20473;-71
2021/12/19 06:17:42;;;;;;;13.13;8.50;;;;;;;1.78;100.00;100569.78;5037140;28;20135;-71
2021/12/19 06:20:09;;;;;;;16.10;9.77;;;;;;;1.80;100.00;100577.53;5046377;28;20063;-72
2021/12/19 06:22:35;;;;;;;9.57;7.75;;;;;;;1.79;100.00;100576.69;5038790;28;20048;-71
2021/12/19 06:25:01;;;;;;;14.13;8.40;;;;;;;1.77;100.00;100575.97;5048440;28;20025;-72
2021/12/19 06:27:26;;;;;;;11.65;7.97;;;;;;;1.76;100.00;100569.06;5044638;28;20028;-73
2021/12/19 06:29:52;;;;;;;8.35;7.50;;;;;;;1.81;100.00;100566.94;5046636;28;20025;-71
2021/12/19 06:32:18;;;;;;;14.95;8.65;;;;;;;1.71;100.00;100560.75;5036628;28;20261;-70
2021/12/19 06:34:44;;;;;;;8.63;7.47;;;;;;;1.74;100.00;100563.13;5051530;28;20486;-72
2021/12/19 06:37:10;;;;;;;9.60;8.15;;;;;;;1.72;100.00;100559.81;5040431;28;20033;-71
2021/12/19 06:39:37;;;;;;;10.35;7.88;;;;;;;1.65;100.00;100562.03;5036757;28;20060;-74
2021/12/19 06:42:06;;;;;;;18.30;10.30;;;;;;;1.63;100.00;100557.91;5044292;28;20348;-71
2021/12/19 06:44:32;;;;;;;11.90;8.30;;;;;;;1.61;100.00;100554.53;5040593;28;20029;-72
2021/12/19 06:46:59;;;;;;;9.85;8.65;;;;;;;1.59;100.00;100546.00;5049743;28;20409;-74
2021/12/19 06:49:24;;;;;;;8.20;7.22;;;;;;;1.63;100.00;100532.56;5034465;28;20049;-70
2021/12/19 06:51:50;;;;;;;10.27;8.00;;;;;;;1.64;100.00;100538.63;5036622;28;20029;-73
2021/12/19 06:54:15;;;;;;;18.17;7.88;;;;;;;1.54;100.00;100524.56;5035061;28;20031;-69
2021/12/19 06:56:41;;;;;;;11.40;9.13;;;;;;;1.57;100.00;100519.97;5036788;28;20033;-72
2021/12/19 06:59:08;;;;;;;8.90;7.63;;;;;;;1.58;100.00;100518.19;5036370;28;20029;-70
2021/12/19 07:01:36;;;;;;;9.38;7.63;;;;;;;1.60;100.00;100506.66;5039453;28;20123;-74
2021/12/19 07:04:02;;;;;;;13.45;7.68;;;;;;;1.62;100.00;100507.38;5045888;28;20029;-71
2021/12/19 07:06:27;;;;;;;11.27;8.10;;;;;;;1.77;100.00;100502.75;5042917;28;20032;-74
2021/12/19 07:08:53;;;;;;;9.10;8.15;;;;;;;1.67;100.00;100507.84;5037258;28;20036;-73
2021/12/19 07:11:18;;;;;;;9.25;8.35;;;;;;;1.68;100.00;100490.38;5044537;28;20029;-71
2021/12/19 07:13:43;;;;;;;9.63;8.43;;;;;;;1.76;100.00;100490.59;5041474;28;20026;-73
2021/12/19 07:16:09;;;;;;;12.57;8.35;;;;;;;1.79;100.00;100481.69;5046052;28;20048;-73
2021/12/19 07:18:36;;;;;;;13.63;9.05;;;;;;;1.83;100.00;100478.72;5036646;28;20029;-72
2021/12/19 07:21:06;;;;;;;14.02;8.15;;;;;;;1.81;100.00;100471.94;5046458;28;20029;-71
2021/12/19 07:23:32;;;;;;;11.00;9.15;;;;;;;1.90;100.00;100472.06;5043601;28;20030;-71
2021/12/19 07:25:58;;;;;;;15.38;9.27;;;;;;;1.84;100.00;100477.78;5043564;28;20042;-69
2021/12/19 07:28:23;;;;;;;11.75;8.52;;;;;;;1.91;100.00;100478.97;5044165;28;20505;-69
2021/12/19 07:30:49;;;;;;;16.25;8.68;;;;;;;2.07;100.00;100480.38;5042143;28;20203;-73
2021/12/19 07:33:14;;;;;;;10.18;8.65;;;;;;;2.08;100.00;100476.81;5037298;28;20387;-68
2021/12/19 07:35:44;;;;;;;13.07;8.98;;;;;;;2.08;100.00;100475.03;5051749;28;20025;-74
2021/12/19 07:38:11;;;;;;;10.82;8.85;;;;;;;2.12;100.00;100463.34;5038824;28;20959;-73
2021/12/19 07:40:39;;;;;;;10.50;8.13;;;;;;;2.20;100.00;100457.50;5035232;28;20558;-70
2021/12/19 07:43:10;;;;;;;9.38;8.07;;;;;;;2.40;100.00;100456.72;5051543;28;20032;-70
2021/12/19 07:45:36;;;;;;;9.20;7.68;;;;;;;2.31;100.00;100449.63;5054272;28;20463;-68
2021/12/19 07:48:02;;;;;;;19.00;10.57;;;;;;;2.72;100.00;100441.03;5034337;28;20080;-69
2021/12/19 07:50:28;;;;;;;12.05;7.72;;;;;;;2.54;100.00;100439.06;5051282;28;20069;-70
2021/12/19 07:52:54;;;;;;;20.00;10.23;;;;;;;3.08;100.00;100436.28;5047082;28;20036;-70
2021/12/19 07:55:21;;;;;;;16.13;9.25;;;;;;;2.76;100.00;100439.81;5035346;28;20026;-68
2021/12/19 07:57:46;;;;;;;14.13;9.43;;;;;;;2.64;100.00;100434.72;5050594;28;20033;-68
2021/12/19 08:00:14;;;;;;;13.57;9.23;;;;;;;2.59;100.00;100426.44;5049872;28;20025;-70
2021/12/19 08:02:42;;;;;;;16.75;9.25;;;;;;;3.04;100.00;100422.63;5032556;28;20194;-71
2021/12/19 08:05:08;;;;;;;12.23;9.15;;;;;;;3.36;100.00;100423.47;5035587;28;20029;-66
2021/12/19 08:07:34;;;;;;;13.13;8.50;;;;;;;3.40;100.00;100415.22;5047354;28;20079;-68
2021/12/19 08:12:34;;;;;;;12.02;9.38;;;;;;;3.69;100.00;100417.13;5049456;28;20067;-66
2021/12/19 08:15:00;;;;;;;15.07;8.25;;;;;;;3.48;100.00;100414.56;5050158;28;20025;-67
2021/12/19 08:17:26;;;;;;;8.85;7.75;;;;;;;3.71;100.00;100404.72;5047955;28;20582;-66
2021/12/19 08:19:51;;;;;;;13.43;7.13;;;;;;;3.32;100.00;100397.53;5036445;28;20474;-66
2021/12/19 08:22:18;;;;;;;10.27;8.13;;;;;;;3.74;100.00;100397.38;5042140;28;20024;-66
2021/12/19 08:24:45;;;;;;;12.98;8.45;;;;;;;3.59;100.00;100396.94;5037011;28;20048;-65
2021/12/19 08:27:11;;;;;;;12.75;8.38;;;;;;;3.39;100.00;100389.97;5054157;28;20402;-64
2021/12/19 08:29:37;;;;;;;9.27;8.07;;;;;;;3.94;100.00;100386.94;5062739;28;20021;-65
2021/12/19 08:32:03;;;;;;;14.27;8.02;;;;;;;3.46;100.00;100375.38;5032920;28;20482;-69
2021/12/19 08:34:28;;;;;;;14.85;8.88;;;;;;;3.15;100.00;100365.84;5034745;28;20033;-73
2021/12/19 08:36:55;;;;;;;9.70;8.13;;;;;;;2.99;100.00;100366.31;5038003;28;20036;-72
2021/12/19 08:39:21;;;;;;;10.43;8.68;;;;;;;3.07;100.00;100352.56;5048157;28;20032;-69
2021/12/19 08:41:46;;;;;;;10.57;8.07;;;;;;;3.14;100.00;100338.78;5044428;28;20035;-75
2021/12/19 08:44:12;;;;;;;9.65;8.52;;;;;;;3.50;100.00;100344.44;5038592;28;20124;-73
2021/12/19 08:46:38;;;;;;;9.80;8.23;;;;;;;3.99;100.00;100329.63;5044560;28;20040;-75
2021/12/19 08:49:05;;;;;;;9.55;8.38;;;;;;;4.02;100.00;100332.81;5042586;28;20124;-77
2021/12/19 08:51:32;;;;;;;14.05;8.55;;;;;;;3.87;100.00;100323.69;5039562;28;20064;-72
2021/12/19 08:54:02;;;;;;;10.20;8.00;;;;;;;3.90;100.00;100317.34;5045762;28;20033;-71
2021/12/19 08:56:28;;;;;;;8.82;8.00;;;;;;;3.75;100.00;100309.03;5044695;28;20021;-71
2021/12/19 08:58:54;;;;;;;13.32;9.43;;;;;;;3.85;100.00;100291.50;5041460;28;20059;-71
2021/12/19 09:01:20;;;;;;;9.13;8.00;;;;;;;3.85;100.00;100291.50;5045307;28;20065;-72
2021/12/19 09:03:45;;;;;;;14.52;9.00;;;;;;;4.00;100.00;100284.88;5041076;28;20033;-73
2021/12/19 09:06:11;;;;;;;10.85;8.10;;;;;;;3.94;100.00;100272.31;5041112;28;20029;-73
2021/12/19 09:08:37;;;;;;;10.07;7.53;;;;;;;3.98;100.00;100271.06;5036899;28;20437;-70
2021/12/19 09:11:05;;;;;;;12.60;8.77;;;;;;;3.92;100.00;100255.03;5035928;28;20112;-71
2021/12/19 09:13:33;;;;;;;10.30;8.30;;;;;;;4.04;100.00;100257.41;5039427;28;20136;-75
2021/12/19 09:16:00;;;;;;;13.32;8.85;;;;;;;4.03;100.00;100252.25;5035662;28;20491;-72
2021/12/19 09:18:26;;;;;;;9.55;8.40;;;;;;;4.00;100.00;100235.00;5040182;28;20045;-69
2021/12/19 09:20:52;;;;;;;13.88;7.90;;;;;;;3.97;100.00;100237.94;5039704;28;20072;-72
2021/12/19 09:23:18;;;;;;;8.77;7.90;;;;;;;4.03;100.00;100232.09;5036295;28;20108;-75
2021/12/19 09:25:44;;;;;;;10.55;8.93;;;;;;;4.16;100.00;100234.44;5035925;28;20048;-72
2021/12/19 09:28:09;;;;;;;8.70;7.78;;;;;;;4.15;100.00;100223.09;5039827;28;20104;-71
2021/12/19 09:30:35;;;;;;;9.60;8.00;;;;;;;4.20;100.00;100217.44;5039057;28;20128;-73
2021/12/19 09:33:02;;;;;;;11.05;8.77;;;;;;;4.45;100.00;100218.63;5039182;28;20470;-73
2021/12/19 09:35:28;;;;;;;12.45;7.95;;;;;;;4.43;100.00;100210.88;5036098;28;20033;-72
2021/12/19 09:37:54;;;;;;;10.32;8.35;;;;;;;4.56;99.52;100220.25;5039910;28;20033;-70
2021/12/19 09:40:22;;;;;;;13.80;9.50;;;;;;;4.80;98.63;100217.13;5034875;28;20409;-70
2021/12/19 09:42:51;;;;;;;13.50;8.65;;;;;;;5.13;97.12;100213.06;5040107;28;20494;-75
2021/12/19 09:45:18;;;;;;;14.52;9.82;;;;;;;5.14;96.58;100206.81;5035019;28;20055;-74
2021/12/19 09:47:44;;;;;;;9.15;7.95;;;;;;;5.12;95.90;100212.25;5038028;28;20043;-72
2021/12/19 09:50:10;;;;;;;14.52;10.30;;;;;;;5.23;95.41;100204.16;5032140;28;20041;-69
2021/12/19 09:52:36;;;;;;;15.30;8.82;;;;;;;5.41;94.02;100201.53;5028870;28;20477;-76
2021/12/19 09:55:03;;;;;;;10.30;8.07;;;;;;;5.36;93.46;100202.94;5044421;28;20108;-77
2021/12/19 09:57:29;;;;;;;13.85;8.57;;;;;;;5.49;92.60;100196.34;5043471;28;20029;-71
2021/12/19 09:59:55;;;;;;;12.23;8.02;;;;;;;5.55;92.51;100193.13;5038559;28;20124;-71
2021/12/19 10:02:21;;;;;;;10.20;8.90;;;;;;;5.48;91.80;100178.91;5051971;28;20584;-75
2021/12/19 10:04:48;;;;;;;12.55;8.48;;;;;;;5.69;90.40;100178.59;5051324;28;20108;-74
2021/12/19 10:07:18;;;;;;;11.65;7.85;;;;;;;5.95;88.73;100164.69;5042105;28;20080;-70
2021/12/19 10:09:49;;;;;;;8.80;7.80;;;;;;;5.87;88.42;100154.06;5039028;28;20482;-72
2021/12/19 10:15:03;;;;;;;12.18;8.05;;;;;;;6.04;87.11;100150.63;5036593;28;20090;-70
2021/12/19 10:17:29;;;;;;;12.32;9.10;;;;;;;6.19;85.81;100146.44;5039925;28;20048;-70
2021/12/19 10:19:59;;;;;;;12.95;8.25;;;;;;;6.15;86.50;100134.53;5040950;28;20036;-78
2021/12/19 10:22:33;;;;;;;13.13;7.55;;;;;;;6.14;87.52;100138.16;5043926;28;20040;-70
2021/12/19 10:25:07;;;;;;;12.93;8.32;;;;;;;6.14;86.13;100132.06;5042433;28;20029;-73
2021/12/19 10:27:42;;;;;;;9.52;8.48;;;;;;;6.52;84.98;100130.78;5038960;28;20569;-72
2021/12/19 10:30:17;;;;;;;10.13;9.10;;;;;;;7.03;83.36;100135.06;5037613;28;20029;-72
2021/12/19 10:33:10;;;;;;;11.15;8.50;;;;;;;7.36;81.78;100135.13;5042499;28;20501;-70
2021/12/19 10:35:47;;;;;;;12.65;8.30;;;;;;;7.14;82.15;100139.22;5043151;28;20052;-72
2021/12/19 10:38:18;;;;;;;12.45;9.57;;;;;;;7.10;81.98;100136.06;5042338;28;20029;-72
2021/12/19 10:40:49;;;;;;;11.18;9.52;;;;;;;6.98;83.13;100131.25;5035194;28;21745;-74
2021/12/19 10:43:18;;;;;;;11.20;9.65;;;;;;;6.89;83.09;100131.25;5035665;28;20021;-78
2021/12/19 10:45:45;;;;;;;12.05;10.73;;;;;;;6.75;84.40;100129.22;5045344;28;20039;-76
2021/12/19 10:48:29;;;;;;;11.65;8.45;;;;;;;6.73;83.66;100125.91;5039047;28;20021;-71
2021/12/19 10:50:57;;;;;;;12.55;9.50;;;;;;;6.91;83.40;100129.28;5050769;28;20025;-75
2021/12/19 10:53:30;;;;;;;11.60;9.07;;;;;;;6.97;84.47;100124.34;5041508;28;20425;-74
2021/12/19 10:55:57;;;;;;;12.25;9.88;;;;;;;7.13;83.39;100124.41;5035701;28;20083;-74
2021/12/19 10:58:25;;;;;;;24.08;8.90;;;;;;;7.22;83.00;100104.94;5033806;28;20104;-73
2021/12/19 11:01:09;;;;;;;12.02;7.78;;;;;;;7.23;82.21;100100.50;5040621;28;20033;-71
2021/12/19 11:03:59;;;;;;;18.33;8.07;;;;;;;7.13;80.85;100100.66;5051355;28;20037;-74
2021/12/19 11:06:38;;;;;;;11.07;8.07;;;;;;;7.04;80.67;100102.44;5039794;28;20358;-74
2021/12/19 11:09:15;;;;;;;11.02;7.82;;;;;;;7.01;81.15;100099.31;5044654;28;20024;-68
2021/12/19 11:12:06;;;;;;;11.75;8.00;;;;;;;7.00;82.09;100098.47;5040882;28;20037;-73
2021/12/19 11:14:38;;;;;;;13.38;8.65;;;;;;;7.06;81.18;100099.66;5041629;28;20389;-71
2021/12/19 11:17:06;;;;;;;17.95;8.90;;;;;;;6.88;80.65;100100.59;5037888;28;20395;-71
2021/12/19 11:19:33;;;;;;;11.30;9.20;;;;;;;6.89;81.38;100096.97;5039138;28;20038;-76
2021/12/19 11:22:00;;;;;;;21.58;10.32;;;;;;;7.01;82.04;100102.75;5038070;28;20390;-69
2021/12/19 11:24:25;;;;;;;11.85;8.73;;;;;;;6.97;82.62;100101.44;5046559;28;20456;-67
2021/12/19 11:26:54;;;;;;;12.68;7.80;;;;;;;6.92;80.52;100099.28;5036207;28;20021;-71
2021/12/19 11:29:20;;;;;;;9.45;8.15;;;;;;;6.95;79.55;100089.41;5034712;28;20030;-72
2021/12/19 11:31:50;;;;;;;8.90;7.97;;;;;;;7.02;79.68;100087.75;5040710;28;20029;-69
2021/12/19 11:34:22;;;;;;;13.65;9.13;;;;;;;7.08;79.76;100084.47;5043288;28;20061;-66
2021/12/19 11:37:06;;;;;;;16.77;9.65;;;;;;;7.03;79.73;100082.31;5034800;28;20066;-72
2021/12/19 11:39:34;;;;;;;16.42;8.25;;;;;;;6.90;80.33;100082.81;5048142;28;20482;-68
2021/12/19 11:42:01;;;;;;;9.85;8.23;;;;;;;7.03;79.56;100078.84;5058148;28;20539;-68
2021/12/19 11:44:38;;;;;;;9.35;7.90;;;;;;;6.91;80.21;100076.56;5042439;28;20037;-69
2021/12/19 11:47:10;;;;;;;9.82;8.82;;;;;;;6.85;81.56;100081.63;5046937;28;20398;-67
2021/12/19 11:49:35;;;;;;;10.95;9.43;;;;;;;6.73;82.32;100078.47;5043062;28;20132;-71
2021/12/19 11:52:22;;;;;;;10.73;8.65;;;;;;;6.69;82.74;100076.34;5036958;28;20182;-67
2021/12/19 11:55:19;;;;;;;9.35;8.45;;;;;;;6.59;84.21;100077.28;5057341;28;20029;-69
2021/12/19 11:58:14;;;;;;;8.93;8.02;;;;;;;6.75;82.89;100075.66;5045768;28;20033;-70
2021/12/19 12:00:43;;;;;;;10.70;9.43;;;;;;;6.82;82.52;100068.75;5042372;28;20048;-70
2021/12/19 12:03:14;;;;;;;12.57;8.63;;;;;;;6.88;83.04;100065.50;5047837;28;20486;-67
2021/12/19 12:05:48;;;;;;;10.10;8.63;;;;;;;6.94;83.33;100067.47;5039350;28;20427;-66
2021/12/19 12:08:15;;;;;;;;;;;;;;;7.11;83.07;100073.59;5036177;28;20033;-66
2021/12/19 12:10:50;;;;;;;10.00;8.25;;;;;;;6.89;83.67;100073.22;5044291;28;19970;-69
2021/12/19 12:13:33;;;;;;;10.23;9.10;;;;;;;6.67;85.53;100071.19;5035560;28;20026;-68
2021/12/19 12:16:21;;;;;;;13.68;8.98;;;;;;;6.70;85.67;100070.91;5042943;28;20447;-68
2021/12/19 12:18:55;;;;;;;11.73;9.23;;;;;;;6.64;86.62;100068.91;5034946;28;20029;-68
2021/12/19 12:21:23;;;;;;;11.40;8.48;;;;;;;6.60;87.36;100068.38;5039436;28;20044;-71
2021/12/19 12:23:55;;;;;;;11.15;9.30;;;;;;;6.51;87.41;100063.25;5057600;28;20106;-73
2021/12/19 12:26:41;;;;;;;13.80;8.77;;;;;;;6.46;88.45;100060.25;5041435;28;20402;-74
2021/12/19 12:29:08;;;;;;;9.07;8.20;;;;;;;6.82;87.71;100050.31;5039531;28;20041;-71
2021/12/19 12:31:34;;;;;;;11.10;8.23;;;;;;;6.90;86.61;100050.31;5041272;28;20047;-67
2021/12/19 12:34:00;;;;;;;10.13;8.13;;;;;;;6.96;87.34;100056.75;5048951;28;20060;-67
2021/12/19 12:36:26;;;;;;;13.82;9.55;;;;;;;6.93;86.87;100057.94;5041844;28;20478;-67